Time;durP1;ratioP1;P1;durP2;ratioP2;P2;SDS_P1;SDS_P2;PMS_P1;PMS_P2;Temp;Humidity;BMP_temperature;BMP_pressure;BME280_temperature;BME280_humidity;BME280_pressure;Samples;Min_cycle;Max_cycle;Signal;HPM_P1;HPM_P2
2024/03/22 00:01:55;;;;;;;36.47;18.42;;;;;;;29.62;71.35;100830.63;5016354;28;66684;-31
2024/03/22 00:04:24;;;;;;;30.80;17.42;;;;;;;29.88;72.43;100863.22;5023236;28;69240;-31
2024/03/22 00:06:53;;;;;;;32.53;18.42;;;;;;;29.91;71.72;100860.91;5032879;28;65489;-34
2024/03/22 00:09:22;;;;;;;40.08;19.23;;;;;;;29.94;72.52;100873.16;5038473;28;69939;-32
2024/03/22 00:11:51;;;;;;;36.03;18.83;;;;;;;29.98;71.75;100871.72;5023527;28;65337;-31
2024/03/22 00:14:54;;;;;;;33.90;19.35;;;;;;;29.99;73.84;100870.66;5022639;28;70366;-30
2024/03/22 00:17:30;;;;;;;38.58;18.92;;;;;;;30.02;72.57;100883.75;5032229;28;66320;-34
2024/03/22 00:20:00;;;;;;;40.58;19.10;;;;;;;30.04;72.98;100881.66;4989993;28;70108;-30
2024/03/22 00:22:29;;;;;;;41.22;19.38;;;;;;;30.09;73.17;100889.97;5004929;28;66033;-31
2024/03/22 00:24:58;;;;;;;45.20;19.85;;;;;;;30.12;72.70;100894.94;5019657;28;70463;-31
2024/03/22 00:27:28;;;;;;;41.78;19.95;;;;;;;30.16;72.80;100890.75;5037739;28;66198;-31
2024/03/22 00:29:57;;;;;;;46.22;20.33;;;;;;;30.18;73.28;100894.09;5037859;28;70207;-32
2024/03/22 00:32:26;;;;;;;57.00;22.13;;;;;;;30.19;73.11;100901.13;5034540;28;65700;-30
2024/03/22 00:34:54;;;;;;;52.05;22.10;;;;;;;30.21;73.54;100899.06;5001257;28;69587;-31
2024/03/22 00:37:23;;;;;;;53.80;23.02;;;;;;;30.23;74.10;100907.81;5034176;28;65701;-35
2024/03/22 00:39:52;;;;;;;54.90;23.05;;;;;;;30.25;74.28;100907.59;5039558;28;69440;-30
2024/03/22 00:42:21;;;;;;;57.70;22.58;;;;;;;30.29;73.71;100906.13;5051851;28;66839;-31
2024/03/22 00:44:51;;;;;;;41.90;20.48;;;;;;;30.32;74.25;100915.69;5045569;28;70232;-30
2024/03/22 00:47:19;;;;;;;59.72;20.42;;;;;;;30.33;74.42;100922.75;5044665;28;65767;-30
2024/03/22 00:49:49;;;;;;;39.67;19.63;;;;;;;30.37;74.03;100923.97;5032016;28;70770;-32
2024/03/22 00:52:17;;;;;;;46.05;18.88;;;;;;;30.34;73.95;100919.00;5030683;28;65374;-31
2024/03/22 00:54:46;;;;;;;36.03;18.58;;;;;;;30.41;74.10;100919.81;5030460;28;69747;-30
2024/03/22 00:57:15;;;;;;;33.13;18.60;;;;;;;30.37;74.12;100919.41;5024924;28;66886;-32
2024/03/22 00:59:44;;;;;;;38.95;18.65;;;;;;;30.42;74.00;100927.72;5026994;28;70779;-31
2024/03/22 01:02:13;;;;;;;38.80;17.13;;;;;;;30.43;73.95;100929.38;5026148;28;65784;-31
2024/03/22 01:04:49;;;;;;;31.75;17.58;;;;;;;30.41;74.43;100919.81;5022784;28;70219;-31
2024/03/22 01:07:21;;;;;;;28.38;17.00;;;;;;;30.47;73.58;100930.59;5022622;28;66289;-31
2024/03/22 01:09:50;;;;;;;29.83;16.67;;;;;;;30.50;73.39;100935.56;5023734;28;70036;-32
2024/03/22 01:12:19;;;;;;;37.28;17.45;;;;;;;30.47;73.42;100927.06;5046396;28;66558;-32
2024/03/22 01:14:48;;;;;;;38.65;17.20;;;;;;;30.52;73.52;100932.66;5025765;28;70716;-31
2024/03/22 01:17:16;;;;;;;29.35;16.77;;;;;;;30.45;73.44;100932.72;5034249;28;64810;-30
2024/03/22 01:19:45;;;;;;;32.42;16.25;;;;;;;30.57;73.63;100940.13;5008313;28;70630;-31
2024/03/22 01:22:14;;;;;;;32.38;16.77;;;;;;;30.57;73.29;100940.97;5026871;28;66173;-31
2024/03/22 01:24:44;;;;;;;28.60;15.73;;;;;;;30.61;73.08;100946.75;5027425;28;69574;-32
2024/03/22 01:27:13;;;;;;;28.23;16.25;;;;;;;30.63;73.34;100953.63;5023337;28;66680;-31
2024/03/22 01:29:42;;;;;;;30.48;16.33;;;;;;;30.63;73.15;100956.34;5042079;28;69161;-31
2024/03/22 01:32:10;;;;;;;28.58;16.00;;;;;;;30.64;72.92;100947.16;5008972;28;65967;-31
2024/03/22 01:34:40;;;;;;;34.42;16.55;;;;;;;30.68;73.57;100953.81;5043699;28;70054;-31
2024/03/22 01:37:09;;;;;;;24.45;15.25;;;;;;;30.69;72.94;100958.16;5000309;28;65983;-30
2024/03/22 01:39:38;;;;;;;23.08;16.52;;;;;;;30.72;73.40;100965.84;5028850;28;70347;-31
2024/03/22 01:42:06;;;;;;;22.20;14.73;;;;;;;30.73;73.36;100967.53;5025245;28;66609;-31
2024/03/22 01:44:35;;;;;;;33.20;15.40;;;;;;;30.75;73.25;100970.00;5051672;28;69598;-31
2024/03/22 01:47:05;;;;;;;35.50;15.15;;;;;;;30.81;72.98;100968.34;5054640;28;66299;-31
2024/03/22 01:49:34;;;;;;;30.50;15.18;;;;;;;30.85;73.47;100975.00;5027989;28;70211;-30
2024/03/22 01:52:03;;;;;;;27.90;15.32;;;;;;;30.88;73.26;100985.38;5026513;28;65625;-32
2024/03/22 01:54:32;;;;;;;21.25;15.05;;;;;;;30.89;72.90;100976.22;5037791;28;70492;-32
2024/03/22 01:57:01;;;;;;;28.38;16.60;;;;;;;30.92;72.96;100979.34;5022572;28;65682;-31
2024/03/22 01:59:31;;;;;;;28.05;15.43;;;;;;;30.95;72.62;100978.03;5019825;28;70241;-31
2024/03/22 02:02:00;;;;;;;27.35;14.35;;;;;;;30.97;73.02;100978.66;5021116;28;65460;-31
2024/03/22 02:04:29;;;;;;;29.23;15.07;;;;;;;30.99;72.76;100979.28;5020271;28;69183;-31
2024/03/22 02:06:57;;;;;;;27.05;15.05;;;;;;;31.01;72.40;100979.91;5039092;28;66019;-31
2024/03/22 02:09:27;;;;;;;26.88;13.70;;;;;;;31.03;72.34;100975.06;5038111;28;70393;-32
2024/03/22 02:11:56;;;;;;;23.17;14.57;;;;;;;31.06;72.09;100976.50;5051887;28;66206;-30
2024/03/22 02:14:25;;;;;;;23.90;14.52;;;;;;;31.09;72.03;100976.06;5025827;28;70693;-31
2024/03/22 02:16:54;;;;;;;24.90;15.25;;;;;;;31.10;72.28;100973.16;5024877;28;65112;-31
2024/03/22 02:19:24;;;;;;;25.52;14.10;;;;;;;31.13;72.25;100977.31;5022731;28;69793;-31
2024/03/22 02:21:52;;;;;;;25.05;14.00;;;;;;;31.14;72.39;100974.34;5040604;28;66134;-31
2024/03/22 02:24:21;;;;;;;27.33;14.40;;;;;;;31.19;71.82;100964.75;5029637;28;69208;-31
2024/03/22 02:26:50;;;;;;;20.90;14.35;;;;;;;31.24;71.56;100973.06;5045351;28;65956;-32
2024/03/22 02:29:19;;;;;;;22.80;13.82;;;;;;;31.27;71.81;100975.31;5046235;28;69927;-30
2024/03/22 02:31:48;;;;;;;23.33;14.20;;;;;;;31.29;72.14;100976.75;5030517;28;66415;-32
2024/03/22 02:34:17;;;;;;;18.65;12.95;;;;;;;31.32;71.68;100970.06;5016551;28;69634;-31
2024/03/22 02:36:46;;;;;;;17.92;13.32;;;;;;;31.23;71.61;100944.28;5031510;28;65400;-32
2024/03/22 02:39:15;;;;;;;17.67;13.30;;;;;;;31.38;71.31;100963.78;5025681;28;69522;-32
2024/03/22 02:41:43;;;;;;;20.92;13.75;;;;;;;31.42;71.32;100965.00;5015268;28;66283;-33
2024/03/22 02:44:12;;;;;;;18.08;13.40;;;;;;;31.45;71.40;100959.13;5033555;28;69202;-32
2024/03/22 02:46:41;;;;;;;20.23;13.70;;;;;;;31.47;71.49;100962.44;5015510;28;65901;-31
2024/03/22 02:49:11;;;;;;;17.80;12.50;;;;;;;31.52;71.06;100962.63;5032705;28;69561;-31
2024/03/22 02:51:40;;;;;;;16.98;13.02;;;;;;;31.55;70.67;100959.47;5044502;28;65623;-31
2024/03/22 02:54:09;;;;;;;19.88;13.35;;;;;;;31.56;70.92;100944.84;5024691;28;69941;-31
2024/03/22 02:56:38;;;;;;;21.98;13.88;;;;;;;31.63;70.86;100946.69;5009725;28;66069;-32
2024/03/22 02:59:07;;;;;;;22.58;13.43;;;;;;;31.66;71.21;100943.50;5029930;28;69978;-31
2024/03/22 03:01:36;;;;;;;20.42;13.48;;;;;;;31.55;71.01;100926.91;5028906;28;65116;-35
2024/03/22 03:04:05;;;;;;;21.70;13.90;;;;;;;31.71;70.93;100940.97;5014738;28;70462;-31
2024/03/22 03:06:34;;;;;;;20.95;13.43;;;;;;;31.75;70.78;100942.16;5031507;28;66805;-31
2024/03/22 03:09:07;;;;;;;18.60;12.73;;;;;;;31.77;70.47;100937.34;5027958;28;69674;-31
2024/03/22 03:11:36;;;;;;;16.60;12.85;;;;;;;31.80;70.67;100926.88;5034630;28;66019;-32
2024/03/22 03:14:05;;;;;;;17.23;12.80;;;;;;;31.80;70.37;100928.75;5022860;28;69738;-31
2024/03/22 03:16:34;;;;;;;15.63;13.00;;;;;;;31.88;70.31;100925.75;5026726;28;66179;-31
2024/03/22 03:19:03;;;;;;;21.00;13.40;;;;;;;31.91;70.45;100917.19;5018602;28;70674;-31
2024/03/22 03:21:33;;;;;;;17.88;13.32;;;;;;;31.95;70.21;100914.84;4992899;28;65225;-31
2024/03/22 03:24:02;;;;;;;21.92;13.57;;;;;;;31.96;70.29;100913.81;5044692;28;70164;-31
2024/03/22 03:26:31;;;;;;;18.25;12.88;;;;;;;31.98;70.39;100919.81;5022856;28;66322;-31
2024/03/22 03:29:00;;;;;;;19.33;12.48;;;;;;;32.01;70.17;100909.34;5027255;28;70171;-31
2024/03/22 03:31:29;;;;;;;15.63;12.48;;;;;;;32.05;69.91;100898.84;5032461;28;65160;-32
2024/03/22 03:33:58;;;;;;;16.02;12.25;;;;;;;32.09;70.07;100888.38;5041433;28;70404;-31
2024/03/22 03:36:27;;;;;;;17.45;12.98;;;;;;;32.11;69.94;100891.69;5004293;28;65701;-33
2024/03/22 03:38:55;;;;;;;20.80;12.98;;;;;;;32.14;70.00;100888.50;5018724;28;69697;-31
2024/03/22 03:41:24;;;;;;;18.15;11.77;;;;;;;32.17;70.07;100879.91;5040005;28;65642;-32
2024/03/22 03:43:53;;;;;;;18.63;12.35;;;;;;;32.19;70.01;100872.38;5025504;28;70500;-32
2024/03/22 03:46:22;;;;;;;17.52;12.60;;;;;;;32.22;69.91;100866.50;4984716;28;66092;-31
2024/03/22 03:48:51;;;;;;;15.95;12.43;;;;;;;32.24;70.00;100864.38;5032228;28;70597;-30
2024/03/22 03:51:21;;;;;;;13.45;12.07;;;;;;;32.26;69.72;100856.81;5031153;28;66281;-32
2024/03/22 03:53:50;;;;;;;14.18;12.68;;;;;;;32.31;69.64;100851.53;5023088;28;69837;-31
2024/03/22 03:56:19;;;;;;;21.17;12.38;;;;;;;32.33;69.66;100851.31;5020075;28;66000;-32
2024/03/22 03:58:48;;;;;;;20.42;12.77;;;;;;;32.37;69.69;100847.88;5023755;28;69072;-33
2024/03/22 04:01:18;;;;;;;18.45;13.15;;;;;;;32.40;69.40;100833.00;5041525;28;65826;-32
2024/03/22 04:03:48;;;;;;;17.42;11.90;;;;;;;32.40;69.73;100839.31;5026290;28;70175;-32
2024/03/22 04:06:17;;;;;;;14.57;12.02;;;;;;;32.43;69.59;100836.13;5030258;28;66165;-31
2024/03/22 04:08:46;;;;;;;13.05;11.75;;;;;;;32.46;69.50;100835.69;5041418;28;69753;-32
2024/03/22 04:11:15;;;;;;;14.63;11.55;;;;;;;32.52;69.33;100835.81;5042894;28;65930;-34
2024/03/22 04:13:44;;;;;;;13.82;12.32;;;;;;;32.52;69.63;100838.53;5018718;28;70137;-34
2024/03/22 04:16:13;;;;;;;14.80;12.35;;;;;;;32.55;69.38;100824.50;5021605;28;66381;-34
2024/03/22 04:18:42;;;;;;;16.90;12.77;;;;;;;32.60;69.44;100819.19;5031885;28;70015;-33
2024/03/22 04:21:11;;;;;;;14.77;12.13;;;;;;;32.63;69.46;100813.28;5040277;28;66567;-32
2024/03/22 04:23:39;;;;;;;15.98;11.68;;;;;;;32.60;69.49;100808.31;5032044;28;70644;-30
2024/03/22 04:26:09;;;;;;;15.82;12.38;;;;;;;32.69;69.27;100809.63;5036953;28;66871;-31
2024/03/22 04:28:37;;;;;;;15.48;12.10;;;;;;;32.70;69.37;100794.97;5023197;28;70199;-33
2024/03/22 04:31:08;;;;;;;12.55;11.45;;;;;;;32.61;69.21;100771.94;5046537;28;66436;-32
2024/03/22 04:33:38;;;;;;;13.40;11.87;;;;;;;32.72;69.26;100780.09;5008853;28;70679;-31
2024/03/22 04:36:09;;;;;;;13.30;11.95;;;;;;;32.76;69.24;100775.00;5036548;28;66324;-32
2024/03/22 04:38:38;;;;;;;14.70;11.70;;;;;;;32.81;69.24;100772.41;5024407;28;69377;-32
2024/03/22 04:41:07;;;;;;;13.88;11.57;;;;;;;32.83;69.03;100762.16;5021101;28;66123;-31
2024/03/22 04:43:36;;;;;;;14.50;12.43;;;;;;;32.84;69.15;100761.09;5025370;28;70300;-31
2024/03/22 04:46:05;;;;;;;16.10;11.30;;;;;;;32.84;69.05;100761.09;5023852;28;66667;-31
2024/03/22 04:48:34;;;;;;;14.68;11.80;;;;;;;32.91;69.03;100756.38;5022674;28;69790;-32
2024/03/22 04:51:03;;;;;;;12.60;11.20;;;;;;;32.93;68.92;100759.69;5023357;28;66817;-31
2024/03/22 04:53:32;;;;;;;12.07;10.70;;;;;;;32.97;68.79;100743.72;5029596;28;69958;-32
2024/03/22 04:56:02;;;;;;;11.68;10.55;;;;;;;32.99;68.66;100746.19;5017434;28;66434;-32
2024/03/22 04:58:32;;;;;;;14.70;10.98;;;;;;;33.04;68.75;100738.19;5021987;28;69605;-31
2024/03/22 05:01:01;;;;;;;11.70;10.52;;;;;;;33.05;68.60;100737.13;5029207;28;65932;-32
2024/03/22 05:03:30;;;;;;;12.27;11.07;;;;;;;33.08;68.55;100729.31;5041596;28;70537;-33
2024/03/22 05:06:03;;;;;;;12.55;11.18;;;;;;;33.13;68.69;100717.75;5029811;28;66285;-32
2024/03/22 05:08:32;;;;;;;11.75;10.60;;;;;;;33.09;68.34;100713.84;5030808;28;70425;-35
2024/03/22 05:11:01;;;;;;;15.77;10.70;;;;;;;33.16;68.29;100709.09;5027786;28;66576;-32
2024/03/22 05:13:31;;;;;;;13.65;10.98;;;;;;;33.19;68.29;100696.94;5033649;28;69769;-32
2024/03/22 05:15:59;;;;;;;12.18;11.00;;;;;;;33.19;68.15;100692.31;4984601;28;67125;-33
2024/03/22 05:18:29;;;;;;;12.15;10.95;;;;;;;33.24;68.28;100699.72;5022385;28;70386;-33
2024/03/22 05:20:57;;;;;;;12.73;10.52;;;;;;;33.22;68.17;100680.97;5041987;28;65950;-36
2024/03/22 05:23:27;;;;;;;19.52;10.65;;;;;;;33.31;68.24;100690.38;5046673;28;70206;-31
2024/03/22 05:25:55;;;;;;;11.50;10.32;;;;;;;33.31;68.40;100679.50;5027216;28;66287;-31
2024/03/22 05:28:24;;;;;;;14.55;10.93;;;;;;;33.39;68.08;100686.44;5045766;28;70776;-32
2024/03/22 05:30:53;;;;;;;12.15;10.13;;;;;;;33.41;68.03;100678.06;5035166;28;66419;-32
2024/03/22 05:33:22;;;;;;;11.68;10.60;;;;;;;33.41;68.16;100667.19;5021697;28;69919;-32
2024/03/22 05:35:51;;;;;;;11.98;10.75;;;;;;;33.46;68.08;100657.25;5037630;28;66010;-32
2024/03/22 05:38:20;;;;;;;14.40;10.02;;;;;;;33.51;67.96;100657.31;5045866;28;70444;-31
2024/03/22 05:40:49;;;;;;;11.50;10.50;;;;;;;33.52;67.90;100658.16;5008539;28;66322;-32
2024/03/22 05:43:18;;;;;;;14.18;11.23;;;;;;;33.55;68.14;100652.25;4999100;28;70414;-31
2024/03/22 05:45:48;;;;;;;10.77;9.77;;;;;;;33.59;67.74;100647.97;5034301;28;66469;-32
2024/03/22 05:48:17;;;;;;;13.43;10.57;;;;;;;33.62;67.52;100631.16;5024780;28;70813;-31
2024/03/22 05:50:46;;;;;;;13.88;10.95;;;;;;;33.55;67.75;100614.19;5051266;28;65246;-32
2024/03/22 05:53:15;;;;;;;12.07;10.85;;;;;;;33.66;67.64;100626.88;5026199;28;70102;-32
2024/03/22 05:55:44;;;;;;;11.05;10.15;;;;;;;33.57;67.46;100601.16;5039438;28;65885;-31
2024/03/22 05:58:13;;;;;;;10.52;9.52;;;;;;;33.65;67.50;100611.63;5020857;28;69168;-31
2024/03/22 06:00:42;;;;;;;13.68;10.57;;;;;;;33.62;67.66;100600.41;5034239;28;65859;-32
2024/03/22 06:03:11;;;;;;;13.60;9.93;;;;;;;33.75;67.44;100609.09;5013988;28;69697;-31
2024/03/22 06:05:40;;;;;;;13.60;9.77;;;;;;;33.73;67.62;100594.06;5031473;28;66846;-32
2024/03/22 06:08:09;;;;;;;11.05;10.07;;;;;;;33.77;67.48;100593.34;5003192;28;70237;-32
2024/03/22 06:11:03;;;;;;;10.25;9.15;;;;;;;33.81;67.50;100596.38;5023436;28;66866;-34
2024/03/22 06:13:36;;;;;;;10.73;9.32;;;;;;;33.85;67.64;100581.22;5023649;28;69697;-32
2024/03/22 06:16:05;;;;;;;10.57;9.68;;;;;;;33.89;67.36;100576.13;5017077;28;65240;-34
2024/03/22 06:18:35;;;;;;;10.07;9.07;;;;;;;33.92;67.32;100570.16;5027636;28;70572;-34
2024/03/22 06:21:04;;;;;;;10.65;9.55;;;;;;;33.96;67.34;100574.03;5020954;28;66705;-35
2024/03/22 06:23:34;;;;;;;10.50;9.50;;;;;;;33.77;67.33;100541.66;5038030;28;69185;-34
2024/03/22 06:26:03;;;;;;;10.77;9.90;;;;;;;33.99;67.03;100571.66;5023186;28;66889;-31
2024/03/22 06:28:32;;;;;;;11.30;9.63;;;;;;;34.03;67.33;100561.09;5024643;28;69181;-33
2024/03/22 06:31:00;;;;;;;12.60;9.60;;;;;;;34.05;67.46;100553.53;5010268;28;65614;-32
2024/03/22 06:33:30;;;;;;;10.68;9.60;;;;;;;34.13;67.09;100564.00;5031402;28;69831;-34
2024/03/22 06:35:58;;;;;;;9.75;8.85;;;;;;;34.12;66.87;100556.06;5050120;28;65415;-32
2024/03/22 06:38:27;;;;;;;9.90;9.10;;;;;;;34.16;66.77;100549.88;5032456;28;70250;-32
2024/03/22 06:40:57;;;;;;;10.25;8.77;;;;;;;34.21;67.04;100546.38;5008418;28;66034;-38
2024/03/22 06:43:26;;;;;;;9.77;8.77;;;;;;;34.13;67.16;100523.16;5022655;28;69349;-34
2024/03/22 06:45:55;;;;;;;10.45;9.45;;;;;;;34.30;67.10;100539.47;5041890;28;66961;-34
2024/03/22 06:48:24;;;;;;;9.73;8.93;;;;;;;34.34;66.90;100532.41;5050438;28;69649;-34
2024/03/22 06:50:52;;;;;;;10.07;9.07;;;;;;;34.38;66.46;100524.56;5054678;28;66769;-34
2024/03/22 06:53:22;;;;;;;10.95;9.02;;;;;;;34.28;66.69;100506.22;5029766;28;69864;-32
2024/03/22 06:55:52;;;;;;;11.10;9.32;;;;;;;34.36;66.66;100505.78;5028771;28;65817;-32
2024/03/22 06:58:21;;;;;;;10.23;9.15;;;;;;;34.49;66.92;100515.44;5031211;28;69610;-32
2024/03/22 07:00:49;;;;;;;9.85;8.65;;;;;;;34.51;66.70;100518.75;5020704;28;66599;-32
2024/03/22 07:03:19;;;;;;;10.63;9.25;;;;;;;34.56;66.99;100513.38;5041040;28;69938;-33
2024/03/22 07:05:48;;;;;;;9.45;8.50;;;;;;;34.61;66.55;100518.91;5005562;28;65928;-32
2024/03/22 07:08:17;;;;;;;11.75;9.18;;;;;;;34.66;66.77;100509.97;5022885;28;70661;-32
2024/03/22 07:10:46;;;;;;;8.77;7.82;;;;;;;34.70;66.77;100508.38;5031611;28;66803;-32
2024/03/22 07:13:15;;;;;;;10.32;8.32;;;;;;;34.74;66.25;100501.31;5036037;28;70338;-38
2024/03/22 07:15:45;;;;;;;9.18;8.23;;;;;;;34.56;66.40;100461.63;5054542;28;65987;-32
2024/03/22 07:18:14;;;;;;;10.05;8.02;;;;;;;34.84;66.29;100495.19;5022272;28;70330;-34
2024/03/22 07:20:45;;;;;;;9.20;8.25;;;;;;;34.88;66.03;100496.28;5022657;28;66422;-32
2024/03/22 07:23:14;;;;;;;9.97;8.27;;;;;;;34.91;66.55;100487.63;5025059;28;69951;-33
2024/03/22 07:25:45;;;;;;;8.20;7.50;;;;;;;34.97;66.19;100500.22;5001452;28;66548;-31
2024/03/22 07:28:15;;;;;;;10.52;8.70;;;;;;;35.01;65.93;100490.44;5026306;28;70322;-34
2024/03/22 07:30:44;;;;;;;10.55;7.90;;;;;;;35.07;66.39;100478.53;5024209;28;66297;-35
2024/03/22 07:33:16;;;;;;;8.35;7.57;;;;;;;35.12;66.01;100480.47;5026963;28;69945;-33
2024/03/22 07:35:45;;;;;;;9.75;8.63;;;;;;;35.18;66.41;100478.63;5025606;28;66121;-31
2024/03/22 07:38:14;;;;;;;9.75;8.10;;;;;;;35.22;65.63;100474.31;5040624;28;70160;-32
2024/03/22 07:40:43;;;;;;;11.13;7.40;;;;;;;35.28;66.12;100484.19;5017347;28;65863;-33
2024/03/22 07:43:14;;;;;;;8.50;7.70;;;;;;;35.30;65.76;100471.94;5039444;28;69870;-33
2024/03/22 07:45:43;;;;;;;8.35;7.55;;;;;;;35.37;65.91;100477.16;5028528;28;66665;-34
2024/03/22 07:48:12;;;;;;;14.13;8.07;;;;;;;35.45;65.48;100478.59;5049403;28;70150;-36
2024/03/22 07:50:41;;;;;;;10.30;8.13;;;;;;;35.49;66.01;100471.50;5031434;28;66062;-32
2024/03/22 07:53:10;;;;;;;11.68;8.18;;;;;;;35.55;65.40;100467.72;5052586;28;70140;-33
2024/03/22 07:55:39;;;;;;;10.23;7.55;;;;;;;35.61;65.31;100471.34;5050705;28;65842;-33
2024/03/22 07:58:08;;;;;;;10.02;8.27;;;;;;;35.62;65.66;100456.63;5008677;28;70647;-32
2024/03/22 08:00:38;;;;;;;8.77;7.88;;;;;;;35.74;65.26;100462.69;5034614;28;66048;-32
2024/03/22 08:03:07;;;;;;;9.15;7.07;;;;;;;35.80;65.14;100461.63;5018872;28;70820;-32
2024/03/22 08:05:36;;;;;;;11.52;7.93;;;;;;;35.86;65.70;100460.59;5026517;28;66964;-31
2024/03/22 08:08:05;;;;;;;10.70;8.02;;;;;;;35.89;65.40;100457.34;5017289;28;69756;-33
2024/03/22 08:10:34;;;;;;;8.70;7.43;;;;;;;35.94;65.64;100438.28;5023559;28;66550;-33
2024/03/22 08:13:03;;;;;;;7.70;7.00;;;;;;;36.02;65.62;100445.94;5040153;28;70147;-32
2024/03/22 08:15:32;;;;;;;12.13;7.88;;;;;;;36.09;65.54;100444.91;5023658;28;66043;-32
2024/03/22 08:18:02;;;;;;;10.80;8.02;;;;;;;36.14;65.43;100453.13;5042713;28;70546;-32
2024/03/22 08:20:33;;;;;;;7.40;6.80;;;;;;;36.22;64.85;100444.44;5009272;28;66137;-31
2024/03/22 08:23:02;;;;;;;7.13;6.53;;;;;;;36.27;65.24;100446.34;5036687;28;70114;-31
2024/03/22 08:25:31;;;;;;;7.32;6.60;;;;;;;36.32;64.62;100438.97;5019841;28;66553;-33
2024/03/22 08:28:00;;;;;;;8.32;7.40;;;;;;;36.35;64.45;100441.16;5025348;28;70008;-33
2024/03/22 08:30:29;;;;;;;11.30;6.88;;;;;;;36.41;65.12;100437.38;5017169;28;66424;-33
2024/03/22 08:32:58;;;;;;;8.13;7.32;;;;;;;36.50;64.92;100434.09;5017005;28;69749;-32
2024/03/22 08:35:27;;;;;;;8.07;6.40;;;;;;;36.52;64.85;100429.19;5010315;28;65002;-32
2024/03/22 08:37:56;;;;;;;11.38;6.90;;;;;;;36.60;64.65;100439.63;5040582;28;70144;-32
2024/03/22 08:40:25;;;;;;;17.40;7.90;;;;;;;36.63;64.20;100433.63;5022536;28;65937;-31
2024/03/22 08:42:54;;;;;;;12.77;6.97;;;;;;;36.72;64.71;100442.09;5020444;28;70349;-34
2024/03/22 08:45:23;;;;;;;13.88;7.22;;;;;;;36.79;64.27;100448.97;5024119;28;66525;-32
2024/03/22 08:47:53;;;;;;;8.95;6.57;;;;;;;36.83;64.60;100446.50;5007683;28;69897;-33
2024/03/22 08:50:21;;;;;;;7.65;6.85;;;;;;;36.89;64.21;100453.63;5044192;28;65792;-34
2024/03/22 08:52:51;;;;;;;10.82;6.85;;;;;;;36.94;64.29;100444.59;5026976;28;71075;-33
2024/03/22 08:55:20;;;;;;;11.35;6.43;;;;;;;36.99;64.31;100450.06;5047805;28;66041;-32
2024/03/22 08:57:49;;;;;;;8.40;6.63;;;;;;;37.03;63.80;100440.28;5035674;28;70186;-33
2024/03/22 09:00:18;;;;;;;7.13;6.53;;;;;;;37.05;64.13;100446.28;5024444;28;66345;-31
2024/03/22 09:02:47;;;;;;;8.02;6.97;;;;;;;37.16;63.77;100456.13;5041301;28;70504;-33
2024/03/22 09:05:16;;;;;;;9.35;6.53;;;;;;;37.19;63.28;100452.81;5028094;28;66186;-33
2024/03/22 09:07:45;;;;;;;6.85;6.20;;;;;;;37.26;63.96;100453.38;5036707;28;69579;-33
2024/03/22 09:10:14;;;;;;;7.93;6.80;;;;;;;37.27;63.50;100457.75;5034853;28;66762;-33
2024/03/22 09:12:43;;;;;;;7.13;5.82;;;;;;;37.32;63.89;100463.22;5048437;28;69379;-33
2024/03/22 09:15:12;;;;;;;7.47;6.28;;;;;;;37.39;63.89;100473.06;5034368;28;65894;-33
2024/03/22 09:17:41;;;;;;;8.48;6.65;;;;;;;37.30;63.18;100465.41;5046410;28;69758;-33
2024/03/22 09:20:11;;;;;;;8.75;6.65;;;;;;;37.33;63.79;100475.81;4998849;28;65300;-34
2024/03/22 09:22:40;;;;;;;21.13;7.43;;;;;;;37.40;63.55;100486.47;5045416;28;70906;-34
2024/03/22 09:25:09;;;;;;;12.85;7.38;;;;;;;37.41;62.66;100487.28;5051455;28;65781;-33
2024/03/22 09:27:38;;;;;;;16.23;7.10;;;;;;;37.42;63.45;100483.44;5037064;28;69402;-33
2024/03/22 09:30:07;;;;;;;9.77;7.28;;;;;;;37.46;63.62;100476.34;5051717;28;65741;-32
2024/03/22 09:32:36;;;;;;;15.65;6.90;;;;;;;37.48;63.89;100487.84;5030918;28;70707;-33
2024/03/22 09:35:06;;;;;;;8.50;6.32;;;;;;;37.63;63.58;100490.56;5020444;28;66014;-33
2024/03/22 09:37:35;;;;;;;19.15;7.60;;;;;;;37.71;62.84;100497.41;5008322;28;69115;-33
2024/03/22 09:40:07;;;;;;;11.68;7.03;;;;;;;37.68;63.41;100482.38;5027569;28;66799;-32
2024/03/22 09:42:41;;;;;;;13.95;7.20;;;;;;;37.74;63.32;100486.72;5009244;28;70296;-33
2024/03/22 09:45:11;;;;;;;9.02;6.90;;;;;;;37.77;63.47;100490.81;5030683;28;65342;-33
2024/03/22 09:47:40;;;;;;;18.90;7.22;;;;;;;37.84;62.94;100490.56;5026760;28;70079;-31
2024/03/22 09:50:09;;;;;;;16.30;7.55;;;;;;;37.89;63.19;100493.25;5046983;28;66384;-34
2024/03/22 09:52:39;;;;;;;11.73;7.20;;;;;;;37.90;63.20;100503.94;5006854;28;69952;-33
2024/03/22 09:55:09;;;;;;;11.55;7.68;;;;;;;37.89;63.05;100499.59;5029370;28;66333;-34
2024/03/22 09:57:39;;;;;;;13.70;7.15;;;;;;;37.50;63.25;100452.84;5029305;28;70002;-34
2024/03/22 10:00:09;;;;;;;9.95;7.53;;;;;;;37.92;63.29;100509.13;5027987;28;66337;-32
2024/03/22 10:02:42;;;;;;;14.82;8.20;;;;;;;37.97;62.95;100514.63;5038825;28;69711;-33
2024/03/22 10:05:12;;;;;;;16.52;8.23;;;;;;;38.03;63.20;100513.53;5033143;28;66701;-31
2024/03/22 10:07:41;;;;;;;12.82;7.88;;;;;;;37.99;63.17;100509.69;5021227;28;70815;-34
2024/03/22 10:10:12;;;;;;;17.80;8.15;;;;;;;37.97;62.94;100522.84;5025955;28;66682;-35
2024/03/22 10:12:41;;;;;;;15.10;8.88;;;;;;;37.98;63.52;100524.50;4993526;28;68923;-32
2024/03/22 10:15:11;;;;;;;13.00;8.75;;;;;;;38.02;63.73;100525.56;5023856;28;66704;-33
2024/03/22 10:17:40;;;;;;;11.97;7.63;;;;;;;38.02;63.71;100532.97;5023809;28;70459;-32
2024/03/22 10:20:13;;;;;;;24.05;8.85;;;;;;;37.97;63.15;100537.38;5030540;28;66685;-33
2024/03/22 10:23:02;;;;;;;13.70;8.70;;;;;;;37.94;63.82;100537.06;5022777;28;69607;-33
2024/03/22 10:25:33;;;;;;;17.30;8.32;;;;;;;37.94;63.29;100539.78;5020082;28;66464;-35
2024/03/22 10:28:03;;;;;;;21.42;8.27;;;;;;;37.91;63.76;100545.84;5037658;28;70645;-35
2024/03/22 10:30:36;;;;;;;17.48;8.50;;;;;;;37.71;63.44;100522.88;5025687;28;66362;-37
2024/03/22 10:33:06;;;;;;;14.38;8.10;;;;;;;37.88;63.89;100547.19;5005500;28;70458;-32
2024/03/22 10:35:36;;;;;;;14.20;8.32;;;;;;;37.75;63.94;100545.88;5023903;28;66661;-33
2024/03/22 10:38:06;;;;;;;11.93;8.40;;;;;;;37.89;64.03;100567.19;5023390;28;70055;-33
2024/03/22 10:40:36;;;;;;;15.93;7.75;;;;;;;37.85;63.69;100574.31;5030167;28;66273;-35
2024/03/22 10:43:05;;;;;;;14.95;8.48;;;;;;;37.76;64.12;100560.38;5049826;28;70781;-33
2024/03/22 10:45:35;;;;;;;16.02;8.05;;;;;;;37.74;64.07;100568.84;5021480;28;67135;-33
2024/03/22 10:48:11;;;;;;;14.52;8.48;;;;;;;37.54;64.02;100541.50;5029134;28;70416;-32
2024/03/22 10:50:44;;;;;;;18.75;8.95;;;;;;;37.51;63.90;100553.00;5027055;28;65665;-33
2024/03/22 10:53:20;;;;;;;12.13;7.70;;;;;;;37.63;64.13;100578.16;5034653;28;69290;-34
2024/03/22 10:55:51;;;;;;;14.55;8.27;;;;;;;37.61;64.20;100583.06;5027013;28;67126;-32
2024/03/22 10:58:24;;;;;;;15.52;8.18;;;;;;;37.56;64.04;100588.56;5024813;28;69024;-33
2024/03/22 11:00:55;;;;;;;14.02;8.27;;;;;;;37.53;64.14;100586.38;5027809;28;66610;-32
2024/03/22 11:03:28;;;;;;;15.93;8.10;;;;;;;37.44;64.56;100587.97;5024381;28;70634;-36
2024/03/22 11:05:57;;;;;;;19.58;9.02;;;;;;;37.42;64.71;100590.16;5036693;28;66563;-32
2024/03/22 11:08:28;;;;;;;17.48;8.35;;;;;;;37.34;64.82;100581.41;5050202;28;70206;-32
2024/03/22 11:10:58;;;;;;;21.65;8.15;;;;;;;37.32;64.32;100600.00;5027669;28;64774;-34
2024/03/22 11:13:27;;;;;;;16.80;8.98;;;;;;;37.22;65.20;100605.47;5019243;28;70188;-32
2024/03/22 11:15:56;;;;;;;18.55;8.45;;;;;;;37.25;65.16;100610.38;5018342;28;65966;-33
2024/03/22 11:18:25;;;;;;;22.33;9.00;;;;;;;37.20;65.55;100615.84;5019881;28;69933;-34
2024/03/22 11:20:54;;;;;;;14.20;8.52;;;;;;;37.11;65.17;100609.25;5022819;28;65821;-34
2024/03/22 11:23:23;;;;;;;16.77;8.35;;;;;;;37.05;65.66;100613.88;5024126;28;70693;-33
2024/03/22 11:25:52;;;;;;;10.85;8.20;;;;;;;37.00;65.65;100622.06;5021463;28;66899;-33